Time;durP1;ratioP1;P1;durP2;ratioP2;P2;SDS_P1;SDS_P2;PMS_P1;PMS_P2;Temp;Humidity;BMP_temperature;BMP_pressure;BME280_temperature;BME280_humidity;BME280_pressure;Samples;Min_cycle;Max_cycle;Signal;HPM_P1;HPM_P2
2023/08/12 00:00:30;;;;;;;6.18;3.25;;;17.30;99.90;;;;;;5052723;28;20424;-56
2023/08/12 00:02:56;;;;;;;6.65;2.45;;;;;;;;;;5053039;28;20055;-48
2023/08/12 00:05:22;;;;;;;5.88;2.13;;;;;;;;;;5051869;28;20062;-52
2023/08/12 00:07:48;;;;;;;4.57;2.13;;;16.30;99.90;;;;;;5052526;28;20558;-55
2023/08/12 00:10:14;;;;;;;7.35;2.42;;;17.50;99.90;;;;;;5052651;28;20025;-54
2023/08/12 00:12:41;;;;;;;6.47;2.30;;;15.00;99.90;;;;;;5052471;28;20090;-55
2023/08/12 00:15:08;;;;;;;8.50;2.20;;;15.90;99.90;;;;;;5052548;28;20029;-53
2023/08/12 00:17:34;;;;;;;7.05;2.50;;;17.70;99.90;;;;;;5052529;28;20025;-54
2023/08/12 00:20:00;;;;;;;7.72;2.40;;;17.70;99.90;;;;;;5052571;28;20045;-53
2023/08/12 00:22:26;;;;;;;6.78;1.90;;;;;;;;;;5052501;28;20033;-51
2023/08/12 00:24:52;;;;;;;9.90;2.28;;;17.20;99.90;;;;;;5052648;28;20020;-54
2023/08/12 00:27:18;;;;;;;5.20;2.47;;;;;;;;;;5052309;28;20464;-51
2023/08/12 00:29:44;;;;;;;5.18;2.05;;;16.90;99.90;;;;;;5052441;28;20474;-56
2023/08/12 00:32:09;;;;;;;7.78;2.08;;;17.60;99.90;;;;;;5052271;28;20067;-50
2023/08/12 00:34:35;;;;;;;6.63;2.40;;;13.00;99.90;;;;;;5052491;28;20690;-50
2023/08/12 00:37:01;;;;;;;8.27;2.20;;;17.20;99.90;;;;;;5052212;28;20025;-53
2023/08/12 00:39:27;;;;;;;5.82;2.60;;;17.20;99.90;;;;;;5052292;28;20573;-50
2023/08/12 00:41:52;;;;;;;7.68;3.17;;;17.20;99.90;;;;;;5052025;28;20021;-50
2023/08/12 00:44:18;;;;;;;6.63;2.65;;;;;;;;;;5052257;28;20390;-52
2023/08/12 00:46:44;;;;;;;6.60;2.97;;;17.40;99.90;;;;;;5051801;28;20530;-51
2023/08/12 00:49:12;;;;;;;6.07;2.92;;;17.40;99.90;;;;;;5052065;28;20025;-51
2023/08/12 00:51:41;;;;;;;6.93;3.08;;;16.20;99.90;;;;;;5051782;28;20033;-49
2023/08/12 00:54:08;;;;;;;8.30;3.05;;;18.30;99.90;;;;;;5049597;28;20386;-51
2023/08/12 00:56:35;;;;;;;6.10;2.67;;;13.90;99.90;;;;;;5051850;28;20057;-51
2023/08/12 00:59:04;;;;;;;5.40;2.42;;;16.20;99.90;;;;;;5048894;28;20037;-54
2023/08/12 01:01:30;;;;;;;8.88;2.88;;;14.10;99.90;;;;;;5040930;28;20021;-52
2023/08/12 01:03:57;;;;;;;9.50;3.22;;;18.30;99.90;;;;;;5051275;28;20518;-54
2023/08/12 01:06:23;;;;;;;7.00;2.67;;;13.10;99.90;;;;;;5051724;28;20034;-49
2023/08/12 01:08:50;;;;;;;6.03;2.28;;;13.40;99.90;;;;;;5051433;28;20025;-54
2023/08/12 01:11:28;;;;;;;6.45;2.53;;;16.80;99.90;;;;;;5050832;28;20017;-52
2023/08/12 01:14:14;;;;;;;6.43;2.67;;;17.20;99.90;;;;;;5051597;28;20028;-50
2023/08/12 01:16:47;;;;;;;8.98;2.17;;;16.80;99.90;;;;;;5038632;28;20040;-50
2023/08/12 01:19:41;;;;;;;5.10;2.10;;;16.90;99.90;;;;;;5051422;28;20564;-56
2023/08/12 01:22:12;;;;;;;7.50;2.53;;;16.30;99.90;;;;;;5051068;28;20037;-52
2023/08/12 01:24:42;;;;;;;4.72;2.00;;;16.40;99.90;;;;;;5051253;28;20513;-55
2023/08/12 01:27:09;;;;;;;6.65;3.13;;;18.00;99.90;;;;;;5051245;28;20033;-51
2023/08/12 01:29:40;;;;;;;7.82;2.42;;;17.50;99.90;;;;;;5050808;28;20490;-49
2023/08/12 01:32:32;;;;;;;5.35;1.88;;;16.90;99.90;;;;;;5036787;28;20541;-53
2023/08/12 01:35:03;;;;;;;5.97;2.00;;;17.10;99.90;;;;;;5035432;28;20037;-55
2023/08/12 01:37:30;;;;;;;9.07;2.40;;;18.40;99.90;;;;;;5042255;28;20362;-51
2023/08/12 01:40:00;;;;;;;6.32;2.53;;;16.40;99.90;;;;;;5042246;28;20028;-50
2023/08/12 01:42:27;;;;;;;4.93;2.03;;;18.50;99.90;;;;;;5035381;28;20028;-50
2023/08/12 01:44:53;;;;;;;8.15;2.50;;;17.30;99.90;;;;;;5037556;28;20033;-50
2023/08/12 01:47:19;;;;;;;7.05;2.35;;;;;;;;;;5041410;28;20440;-49
2023/08/12 01:49:45;;;;;;;6.80;2.47;;;16.80;99.90;;;;;;5041136;28;20112;-59
2023/08/12 01:52:11;;;;;;;6.38;2.17;;;17.90;99.90;;;;;;5050491;28;20036;-49
2023/08/12 01:54:36;;;;;;;7.97;2.13;;;16.40;99.90;;;;;;5050420;28;20021;-54
2023/08/12 01:57:08;;;;;;;5.35;2.42;;;16.50;99.90;;;;;;5050397;28;20021;-51
2023/08/12 01:59:36;;;;;;;6.55;2.35;;;17.80;99.90;;;;;;5050729;28;20029;-52
2023/08/12 02:02:02;;;;;;;5.93;2.78;;;;;;;;;;5050698;28;20046;-51
2023/08/12 02:04:28;;;;;;;9.07;2.88;;;17.70;99.90;;;;;;5050567;28;20033;-51
2023/08/12 02:06:54;;;;;;;4.78;2.15;;;13.10;99.90;;;;;;5050522;28;20023;-54
2023/08/12 02:09:20;;;;;;;4.90;1.77;;;15.70;99.90;;;;;;5050592;28;20128;-55
2023/08/12 02:11:46;;;;;;;4.55;1.73;;;17.80;99.90;;;;;;5050548;28;20472;-51
2023/08/12 02:14:12;;;;;;;5.07;2.10;;;;;;;;;;5050266;28;20056;-55
2023/08/12 02:16:38;;;;;;;4.78;2.15;;;;;;;;;;5050404;28;20363;-55
2023/08/12 02:19:04;;;;;;;4.88;2.35;;;;;;;;;;5050347;28;20044;-54
2023/08/12 02:21:30;;;;;;;4.88;2.08;;;17.60;99.90;;;;;;5050647;28;20071;-49
2023/08/12 02:23:55;;;;;;;6.28;2.15;;;17.10;99.90;;;;;;5050333;28;20063;-50
2023/08/12 02:26:21;;;;;;;8.25;1.90;;;16.80;99.90;;;;;;5048250;28;20025;-52
2023/08/12 02:28:47;;;;;;;7.35;2.22;;;;;;;;;;5048168;28;20032;-50
2023/08/12 02:31:13;;;;;;;9.00;2.22;;;17.20;99.90;;;;;;5049742;28;20421;-55
2023/08/12 02:33:39;;;;;;;5.22;2.28;;;17.60;99.90;;;;;;5049818;28;20477;-54
2023/08/12 02:36:05;;;;;;;3.78;1.83;;;17.90;99.90;;;;;;5050184;28;20024;-52
2023/08/12 02:38:30;;;;;;;5.70;1.88;;;17.00;99.90;;;;;;5050005;28;20071;-51
2023/08/12 02:40:56;;;;;;;4.78;1.90;;;16.40;99.90;;;;;;5050073;28;20021;-54
2023/08/12 02:43:22;;;;;;;6.93;1.75;;;;;;;;;;5050109;28;20025;-52
2023/08/12 02:45:47;;;;;;;7.60;2.10;;;13.20;99.90;;;;;;5049599;28;20041;-58
2023/08/12 02:48:13;;;;;;;8.95;2.75;;;14.10;99.90;;;;;;5050001;28;20044;-54
2023/08/12 02:50:39;;;;;;;4.18;2.00;;;;;;;;;;5050024;28;20470;-50
2023/08/12 02:53:06;;;;;;;7.10;2.55;;;16.50;99.90;;;;;;5049996;28;20033;-53
2023/08/12 02:55:32;;;;;;;7.95;1.75;;;18.00;99.90;;;;;;5049867;28;20020;-52
2023/08/12 02:57:58;;;;;;;6.38;2.20;;;12.80;99.90;;;;;;5049889;28;20037;-49
2023/08/12 03:00:24;;;;;;;5.25;2.10;;;;;;;;;;5049675;28;20539;-50
2023/08/12 03:02:49;;;;;;;7.55;2.80;;;17.70;99.90;;;;;;5049794;28;20051;-53
2023/08/12 03:05:16;;;;;;;7.07;2.42;;;18.80;99.90;;;;;;5049944;28;20389;-57
2023/08/12 03:07:41;;;;;;;5.15;2.42;;;17.00;99.90;;;;;;5049987;28;20021;-53
2023/08/12 03:10:07;;;;;;;8.07;2.42;;;17.60;99.90;;;;;;5049741;28;20112;-53
2023/08/12 03:12:33;;;;;;;5.60;2.55;;;17.50;99.90;;;;;;5049886;28;20033;-52
2023/08/12 03:14:58;;;;;;;6.55;2.60;;;17.10;99.90;;;;;;5048429;28;20771;-53
2023/08/12 03:17:24;;;;;;;5.07;2.53;;;17.80;99.90;;;;;;5049645;28;20045;-49
2023/08/12 03:19:50;;;;;;;6.38;2.17;;;14.20;99.90;;;;;;5049705;28;20062;-51
2023/08/12 03:22:15;;;;;;;12.02;2.53;;;18.60;99.90;;;;;;5049793;28;20504;-56
2023/08/12 03:24:41;;;;;;;6.88;2.35;;;18.10;99.90;;;;;;5049710;28;20104;-52
2023/08/12 03:27:06;;;;;;;6.10;2.22;;;17.80;99.90;;;;;;5049596;28;20029;-50
2023/08/12 03:29:32;;;;;;;3.28;1.70;;;16.60;99.90;;;;;;5049765;28;20470;-52
2023/08/12 03:31:58;;;;;;;5.07;2.42;;;16.60;99.90;;;;;;5048033;28;20102;-53
2023/08/12 03:34:24;;;;;;;7.53;2.53;;;17.00;99.90;;;;;;5049634;28;20063;-52
2023/08/12 03:36:50;;;;;;;7.80;2.17;;;17.90;99.90;;;;;;5049648;28;20052;-52
2023/08/12 03:39:16;;;;;;;6.00;1.65;;;;;;;;;;5049806;28;20451;-49
2023/08/12 03:41:42;;;;;;;5.32;2.33;;;18.60;99.90;;;;;;5053431;28;20116;-56
2023/08/12 03:44:08;;;;;;;9.25;2.25;;;;;;;;;;5053063;28;20223;-54
2023/08/12 03:46:34;;;;;;;7.28;2.45;;;14.80;99.90;;;;;;5052796;28;20379;-55
2023/08/12 03:49:00;;;;;;;3.78;2.03;;;;;;;;;;5053264;28;20025;-56
2023/08/12 03:51:26;;;;;;;6.65;2.10;;;17.10;99.90;;;;;;5053062;28;20033;-52
2023/08/12 03:53:52;;;;;;;7.05;2.42;;;;;;;;;;5053038;28;20040;-53
2023/08/12 03:56:17;;;;;;;8.25;2.30;;;13.40;99.90;;;;;;5052776;28;20027;-53
2023/08/12 03:58:43;;;;;;;5.35;2.25;;;;;;;;;;5052729;28;20126;-49
2023/08/12 04:01:09;;;;;;;3.80;2.00;;;16.50;99.90;;;;;;5052749;28;20153;-57
2023/08/12 04:03:34;;;;;;;8.32;1.90;;;13.60;99.90;;;;;;5052865;28;20410;-48
2023/08/12 04:06:00;;;;;;;9.70;2.72;;;16.80;99.90;;;;;;5052826;28;20078;-53
2023/08/12 04:08:26;;;;;;;9.00;2.47;;;17.80;99.90;;;;;;5052841;28;20127;-48
2023/08/12 04:10:52;;;;;;;8.70;1.77;;;;;;;;;;5052333;28;20028;-54
2023/08/12 04:13:17;;;;;;;5.47;1.90;;;16.60;99.90;;;;;;5033444;28;20038;-51
2023/08/12 04:15:48;;;;;;;5.95;2.08;;;13.50;99.90;;;;;;5040529;28;20036;-52
2023/08/12 04:18:14;;;;;;;6.03;2.20;;;17.80;99.90;;;;;;5036370;28;20029;-51
2023/08/12 04:20:40;;;;;;;6.65;2.22;;;;;;;;;;5048920;28;20025;-51
2023/08/12 04:23:06;;;;;;;6.60;2.30;;;17.20;99.90;;;;;;5047180;28;20025;-48
2023/08/12 04:25:31;;;;;;;7.55;2.10;;;18.10;99.90;;;;;;5045262;28;20026;-55
2023/08/12 04:27:58;;;;;;;6.65;2.35;;;;;;;;;;5047106;28;20041;-49
2023/08/12 04:30:23;;;;;;;4.85;2.25;;;17.70;99.90;;;;;;5039158;28;20021;-53
2023/08/12 04:32:49;;;;;;;8.98;2.45;;;;;;;;;;5039828;28;20554;-55
2023/08/12 04:35:15;;;;;;;6.72;2.00;;;;;;;;;;5045668;28;20021;-50
2023/08/12 04:37:41;;;;;;;5.07;2.88;;;18.70;99.90;;;;;;5034082;28;20037;-51
2023/08/12 04:40:08;;;;;;;6.80;2.50;;;18.00;99.90;;;;;;5032025;28;20078;-51
2023/08/12 04:42:34;;;;;;;7.30;2.50;;;17.20;99.90;;;;;;5032020;28;20018;-55
2023/08/12 04:45:00;;;;;;;9.55;2.30;;;;;;;;;;5033594;28;20021;-51
2023/08/12 04:47:25;;;;;;;9.32;2.42;;;16.10;99.90;;;;;;5031943;28;20033;-53
2023/08/12 04:49:51;;;;;;;5.20;2.30;;;16.70;99.90;;;;;;5041910;28;20079;-49
2023/08/12 04:52:17;;;;;;;4.20;1.90;;;17.60;99.90;;;;;;5041817;28;20045;-48
2023/08/12 04:54:43;;;;;;;6.22;2.60;;;18.70;99.90;;;;;;5036626;28;20028;-53
2023/08/12 04:57:09;;;;;;;4.95;2.00;;;18.00;99.90;;;;;;5037973;28;20040;-51
2023/08/12 04:59:35;;;;;;;5.55;2.28;;;;;;;;;;5032075;28;20021;-53
2023/08/12 05:02:01;;;;;;;5.72;2.60;;;12.90;99.90;;;;;;5034885;28;20104;-55
2023/08/12 05:04:27;;;;;;;5.22;2.05;;;;;;;;;;5035348;28;20044;-48
2023/08/12 05:06:52;;;;;;;6.53;2.42;;;16.80;99.90;;;;;;5030649;28;20133;-53
2023/08/12 05:09:18;;;;;;;4.22;2.20;;;16.90;99.90;;;;;;5034978;28;20024;-48
2023/08/12 05:11:44;;;;;;;6.32;2.53;;;16.40;99.90;;;;;;5036150;28;20022;-50
2023/08/12 05:14:09;;;;;;;8.68;2.53;;;14.20;99.90;;;;;;5033579;28;20540;-57
2023/08/12 05:16:35;;;;;;;5.07;2.17;;;17.50;99.90;;;;;;5031369;28;20017;-53
2023/08/12 05:19:00;;;;;;;4.70;2.20;;;17.70;99.90;;;;;;5035877;28;20421;-54
2023/08/12 05:21:26;;;;;;;4.70;2.30;;;;;;;;;;5035819;28;20551;-52
2023/08/12 05:23:52;;;;;;;5.78;2.00;;;12.70;99.90;;;;;;5030042;28;20025;-52
2023/08/12 05:26:20;;;;;;;6.03;2.20;;;;;;;;;;5030030;28;20397;-49
2023/08/12 05:28:46;;;;;;;8.15;2.28;;;;;;;;;;5037140;28;20032;-51
2023/08/12 05:31:11;;;;;;;5.75;2.15;;;16.90;99.90;;;;;;5035634;28;20088;-49
2023/08/12 05:33:37;;;;;;;6.70;2.28;;;17.00;99.90;;;;;;5033124;28;20021;-55
2023/08/12 05:36:03;;;;;;;4.32;1.98;;;13.40;99.90;;;;;;5051315;28;20021;-52
2023/08/12 05:38:29;;;;;;;5.18;2.20;;;17.50;99.90;;;;;;5051177;28;20409;-52
2023/08/12 05:40:54;;;;;;;8.02;2.47;;;17.90;99.90;;;;;;5051007;28;20013;-55
2023/08/12 05:43:20;;;;;;;4.38;2.17;;;18.50;99.90;;;;;;5051024;28;20037;-54
2023/08/12 05:45:45;;;;;;;7.22;2.15;;;16.80;99.90;;;;;;5050850;28;20056;-54
2023/08/12 05:48:11;;;;;;;4.60;1.85;;;;;;;;;;5051022;28;20483;-51
2023/08/12 05:50:37;;;;;;;8.25;2.38;;;17.90;99.90;;;;;;5050903;28;20032;-52
2023/08/12 05:53:03;;;;;;;6.35;2.08;;;14.70;99.90;;;;;;5050965;28;20025;-58
2023/08/12 05:55:28;;;;;;;7.85;2.88;;;17.20;99.90;;;;;;5050902;28;20060;-54
2023/08/12 05:57:54;;;;;;;8.35;1.98;;;19.10;99.90;;;;;;5050633;28;20390;-50
2023/08/12 06:00:20;;;;;;;6.40;1.98;;;18.10;99.90;;;;;;5050786;28;20029;-55
2023/08/12 06:02:45;;;;;;;6.28;1.90;;;15.90;99.90;;;;;;5050079;28;20034;-48
2023/08/12 06:05:11;;;;;;;9.77;2.72;;;17.40;99.90;;;;;;5050739;28;20017;-54
2023/08/12 06:07:36;;;;;;;11.75;2.55;;;18.10;99.90;;;;;;5050737;28;20025;-53
2023/08/12 06:10:03;;;;;;;9.20;2.40;;;16.80;99.90;;;;;;5050651;28;20036;-52
2023/08/12 06:12:28;;;;;;;12.70;2.47;;;17.80;99.90;;;;;;5050583;28;20116;-51
2023/08/12 06:14:54;;;;;;;14.57;2.22;;;18.50;99.90;;;;;;5050434;28;20048;-55
2023/08/12 06:17:20;;;;;;;10.57;2.00;;;19.00;99.90;;;;;;5050448;28;20082;-52
2023/08/12 06:19:45;;;;;;;11.60;2.80;;;18.40;99.90;;;;;;5050352;28;20036;-51
2023/08/12 06:22:11;;;;;;;8.32;2.38;;;20.70;99.90;;;;;;5050290;28;20017;-52
2023/08/12 06:24:37;;;;;;;12.85;2.83;;;18.90;99.90;;;;;;5050394;28;20382;-53
2023/08/12 06:27:02;;;;;;;6.45;2.00;;;20.60;99.90;;;;;;5036862;28;20126;-50
2023/08/12 06:29:28;;;;;;;5.30;1.80;;;;;;;;;;5038342;28;20372;-49
2023/08/12 06:31:54;;;;;;;14.18;2.22;;;18.90;99.90;;;;;;5041955;28;20028;-51
2023/08/12 06:34:20;;;;;;;11.30;2.33;;;;;;;;;;5038231;28;20045;-52
2023/08/12 06:36:46;;;;;;;8.32;2.60;;;19.10;99.90;;;;;;5037605;28;20391;-52
2023/08/12 06:39:12;;;;;;;9.40;2.30;;;;;;;;;;5032247;28;20038;-50
2023/08/12 06:41:38;;;;;;;9.70;1.95;;;19.90;99.90;;;;;;5030542;28;20108;-51
2023/08/12 06:44:04;;;;;;;8.70;1.73;;;15.90;99.90;;;;;;5037201;28;20025;-48
2023/08/12 06:46:30;;;;;;;7.35;1.70;;;16.30;99.90;;;;;;5031299;28;20049;-50
2023/08/12 06:48:56;;;;;;;8.95;1.92;;;16.90;99.90;;;;;;5035536;28;20029;-54
2023/08/12 06:51:22;;;;;;;6.68;1.90;;;20.20;99.90;;;;;;5036493;28;20386;-48
2023/08/12 06:53:48;;;;;;;15.13;1.88;;;;;;;;;;5034842;28;20115;-48
2023/08/12 06:56:13;;;;;;;11.88;2.00;;;20.20;99.90;;;;;;5031289;28;20549;-48
2023/08/12 06:58:39;;;;;;;9.48;2.17;;;;;;;;;;5036300;28;20113;-48
2023/08/12 07:01:05;;;;;;;7.75;2.17;;;21.00;99.90;;;;;;5031113;28;20048;-48
2023/08/12 07:03:32;;;;;;;4.35;1.95;;;;;;;;;;5035094;28;20068;-48
2023/08/12 07:05:58;;;;;;;12.00;1.98;;;20.80;99.90;;;;;;5034928;28;20071;-49
2023/08/12 07:08:24;;;;;;;12.75;2.22;;;21.30;99.90;;;;;;5030003;28;20022;-57
2023/08/12 07:10:49;;;;;;;10.60;1.75;;;21.60;99.90;;;;;;5036895;28;20052;-51
2023/08/12 07:13:15;;;;;;;9.73;2.47;;;21.70;99.90;;;;;;5031513;28;20042;-51
2023/08/12 07:15:40;;;;;;;8.68;1.63;;;22.10;99.90;;;;;;5044246;28;20024;-48
2023/08/12 07:18:06;;;;;;;5.35;1.58;;;22.60;99.90;;;;;;5036990;28;20053;-49
2023/08/12 07:20:32;;;;;;;5.22;1.58;;;23.10;99.90;;;;;;5033625;28;20033;-53
2023/08/12 07:22:57;;;;;;;5.40;1.83;;;23.30;99.90;;;;;;5037027;28;20021;-53
2023/08/12 07:25:23;;;;;;;5.80;1.63;;;22.80;99.90;;;;;;5036962;28;20025;-55
2023/08/12 07:27:48;;;;;;;7.60;1.23;;;22.10;99.90;;;;;;5035178;28;20038;-53
2023/08/12 07:30:14;;;;;;;4.93;1.52;;;21.80;99.90;;;;;;5034702;28;20018;-49
2023/08/12 07:32:40;;;;;;;9.75;2.08;;;21.80;99.90;;;;;;5036555;28;20037;-51
2023/08/12 07:35:05;;;;;;;10.55;1.80;;;21.90;99.90;;;;;;5047644;28;20028;-54
2023/08/12 07:37:32;;;;;;;9.07;1.75;;;22.10;99.90;;;;;;5053461;28;20033;-53
2023/08/12 07:39:57;;;;;;;7.60;1.77;;;22.10;99.90;;;;;;5053326;28;20056;-50
2023/08/12 07:42:23;;;;;;;8.75;1.90;;;21.70;99.90;;;;;;5036323;28;20055;-55
2023/08/12 07:44:49;;;;;;;9.35;1.90;;;21.90;99.90;;;;;;5033161;28;20441;-54
2023/08/12 07:47:15;;;;;;;7.82;1.70;;;22.40;99.90;;;;;;5035232;28;20053;-51
2023/08/12 07:49:42;;;;;;;7.63;2.05;;;22.70;99.90;;;;;;5035485;28;20088;-50
2023/08/12 07:52:07;;;;;;;6.15;1.60;;;22.80;99.90;;;;;;5033998;28;20021;-50
2023/08/12 07:54:33;;;;;;;9.57;1.85;;;22.30;99.90;;;;;;5034232;28;20075;-54
2023/08/12 07:56:59;;;;;;;5.20;1.65;;;22.20;99.90;;;;;;5035553;28;20026;-55
2023/08/12 07:59:25;;;;;;;6.55;1.52;;;22.10;99.90;;;;;;5034991;28;20514;-51
2023/08/12 08:01:51;;;;;;;6.63;1.73;;;21.70;99.90;;;;;;5031516;28;20495;-50
2023/08/12 08:04:17;;;;;;;7.10;1.83;;;21.50;99.90;;;;;;5033229;28;20110;-48
2023/08/12 08:06:43;;;;;;;6.18;1.52;;;21.20;99.90;;;;;;5033344;28;20026;-53
2023/08/12 08:09:09;;;;;;;5.68;2.03;;;21.40;99.90;;;;;;5032026;28;20079;-53
2023/08/12 08:11:35;;;;;;;7.35;1.58;;;21.20;99.90;;;;;;5032039;28;20043;-55
2023/08/12 08:14:00;;;;;;;5.90;1.33;;;21.90;99.90;;;;;;5033074;28;20512;-48
2023/08/12 08:16:26;;;;;;;8.32;1.65;;;22.70;99.90;;;;;;5033780;28;20027;-48
2023/08/12 08:18:52;;;;;;;9.27;2.00;;;23.10;99.90;;;;;;5032887;28;20041;-50
2023/08/12 08:21:17;;;;;;;6.72;1.90;;;23.10;99.90;;;;;;5034581;28;20057;-54
2023/08/12 08:23:43;;;;;;;6.88;1.45;;;23.10;99.90;;;;;;5034797;28;20403;-53
2023/08/12 08:26:09;;;;;;;7.88;2.28;;;23.50;99.90;;;;;;5032965;28;20486;-55
2023/08/12 08:28:35;;;;;;;8.57;1.90;;;24.00;99.90;;;;;;5033377;28;20033;-55
2023/08/12 08:31:00;;;;;;;9.13;1.85;;;24.20;99.90;;;;;;5034746;28;20032;-51
2023/08/12 08:33:26;;;;;;;7.38;1.58;;;24.60;99.90;;;;;;5034195;28;20482;-50
2023/08/12 08:35:53;;;;;;;9.45;1.63;;;24.00;99.90;;;;;;5037439;28;20032;-52
2023/08/12 08:38:18;;;;;;;8.23;1.42;;;23.80;99.90;;;;;;5052157;28;20087;-55
2023/08/12 08:40:44;;;;;;;5.72;1.40;;;23.10;99.90;;;;;;5052498;28;20025;-53
2023/08/12 08:43:15;;;;;;;6.65;1.85;;;19.10;99.90;;;;;;5052290;28;20075;-51
2023/08/12 08:45:41;;;;;;;4.82;1.23;;;23.10;99.90;;;;;;5051995;28;20037;-54
2023/08/12 08:48:08;;;;;;;4.53;1.13;;;21.50;99.90;;;;;;5052217;28;20443;-52
2023/08/12 08:50:35;;;;;;;5.05;1.15;;;19.30;99.90;;;;;;5052160;28;20032;-53
2023/08/12 08:53:02;;;;;;;8.88;1.25;;;21.00;99.90;;;;;;5051941;28;20107;-47
2023/08/12 08:55:28;;;;;;;8.60;1.38;;;;;;;;;;5052161;28;20024;-57
2023/08/12 08:57:54;;;;;;;6.72;1.85;;;21.50;99.90;;;;;;5052036;28;20024;-50
2023/08/12 09:00:20;;;;;;;7.05;1.35;;;21.60;99.90;;;;;;5051854;28;20028;-54
2023/08/12 09:02:48;;;;;;;7.10;1.80;;;20.80;99.90;;;;;;5051914;28;20036;-54
2023/08/12 09:05:15;;;;;;;9.05;1.45;;;20.90;99.90;;;;;;5051759;28;20033;-51
2023/08/12 09:07:42;;;;;;;7.95;2.15;;;21.70;99.90;;;;;;5051845;28;20033;-54
2023/08/12 09:10:09;;;;;;;10.00;1.60;;;21.90;99.90;;;;;;5051732;28;20021;-51
2023/08/12 09:12:36;;;;;;;10.23;1.52;;;22.30;99.90;;;;;;5051881;28;20488;-51
2023/08/12 09:15:02;;;;;;;10.32;2.42;;;22.80;99.90;;;;;;5051531;28;20425;-51
2023/08/12 09:17:27;;;;;;;6.32;1.52;;;23.10;99.90;;;;;;5050054;28;20032;-52
2023/08/12 09:19:53;;;;;;;7.93;1.52;;;;;;;;;;5051326;28;20490;-50
2023/08/12 09:22:19;;;;;;;6.78;1.67;;;25.80;99.90;;;;;;5051480;28;20016;-53
2023/08/12 09:24:45;;;;;;;8.32;1.67;;;;;;;;;;5051313;28;20120;-48
2023/08/12 09:27:10;;;;;;;7.35;2.10;;;24.00;99.90;;;;;;5051569;28;20041;-48
2023/08/12 09:29:36;;;;;;;5.97;1.30;;;24.20;99.90;;;;;;5051482;28;20466;-52
2023/08/12 09:32:19;;;;;;;7.13;1.40;;;23.70;99.90;;;;;;5050892;28;20013;-47
2023/08/12 09:34:49;;;;;;;7.78;1.70;;;19.20;99.90;;;;;;5051437;28;20033;-53
2023/08/12 09:37:15;;;;;;;9.25;2.20;;;24.00;99.90;;;;;;5047763;28;20021;-57
2023/08/12 09:39:41;;;;;;;12.40;1.98;;;22.80;99.90;;;;;;5048735;28;20033;-52
2023/08/12 09:42:07;;;;;;;7.00;1.10;;;23.50;99.90;;;;;;5051032;28;20021;-50
2023/08/12 09:44:36;;;;;;;6.60;1.55;;;23.30;99.90;;;;;;5051012;28;20139;-50
2023/08/12 09:47:03;;;;;;;9.27;2.22;;;24.20;99.90;;;;;;5033381;28;20513;-52
2023/08/12 09:49:29;;;;;;;6.32;1.55;;;23.80;99.90;;;;;;5034472;28;20025;-47
2023/08/12 09:51:56;;;;;;;10.07;1.60;;;23.90;99.90;;;;;;5034122;28;20533;-50
2023/08/12 09:54:21;;;;;;;8.77;1.50;;;24.30;99.90;;;;;;5030995;28;20483;-48
2023/08/12 09:56:49;;;;;;;5.55;0.95;;;24.90;99.90;;;;;;5033872;28;20032;-48
2023/08/12 09:59:23;;;;;;;7.28;1.83;;;25.40;99.90;;;;;;5040359;28;20055;-49
2023/08/12 10:01:52;;;;;;;13.40;1.75;;;25.40;99.90;;;;;;5035928;28;20017;-55
2023/08/12 10:04:18;;;;;;;9.30;1.90;;;;;;;;;;5032548;28;20125;-52
2023/08/12 10:06:46;;;;;;;10.43;2.08;;;25.10;99.90;;;;;;5036493;28;20119;-48
2023/08/12 10:09:12;;;;;;;7.38;1.20;;;25.80;99.90;;;;;;5034543;28;20053;-50
2023/08/12 10:11:37;;;;;;;6.32;1.60;;;27.50;99.90;;;;;;5039474;28;20083;-53
2023/08/12 10:14:04;;;;;;;8.68;1.75;;;26.80;99.90;;;;;;5038687;28;20596;-49
2023/08/12 10:16:30;;;;;;;6.38;1.30;;;24.20;99.90;;;;;;5042382;28;20389;-48
2023/08/12 10:18:57;;;;;;;8.52;1.83;;;24.80;99.90;;;;;;5043095;28;20029;-52
2023/08/12 10:21:25;;;;;;;6.57;1.42;;;25.20;99.90;;;;;;5034024;28;20021;-49
2023/08/12 10:23:51;;;;;;;7.80;1.23;;;24.80;99.90;;;;;;5035447;28;20053;-50
2023/08/12 10:26:17;;;;;;;11.45;1.65;;;26.80;99.90;;;;;;5039270;28;20048;-50
2023/08/12 10:28:43;;;;;;;7.13;1.52;;;27.60;99.90;;;;;;5038384;28;20116;-48
2023/08/12 10:31:11;;;;;;;5.03;1.63;;;27.40;99.90;;;;;;5031327;28;20053;-54
2023/08/12 10:33:41;;;;;;;6.38;1.73;;;27.00;99.90;;;;;;5030516;28;20367;-56
2023/08/12 10:36:07;;;;;;;5.75;1.27;;;28.10;99.90;;;;;;5037474;28;20024;-54
2023/08/12 10:38:33;;;;;;;9.57;1.50;;;;;;;;;;5042405;28;20068;-51
2023/08/12 10:41:22;;;;;;;11.90;2.00;;;25.70;99.90;;;;;;5038652;28;20082;-52
2023/08/12 10:44:08;;;;;;;6.22;1.83;;;27.10;99.90;;;;;;5039518;28;20035;-52
2023/08/12 10:46:36;;;;;;;14.63;2.15;;;25.90;99.90;;;;;;5045333;28;20047;-49
2023/08/12 10:49:11;;;;;;;12.18;2.05;;;27.30;99.90;;;;;;5046860;28;20458;-53
2023/08/12 10:51:46;;;;;;;8.93;1.95;;;20.90;99.90;;;;;;5042143;28;20021;-50
2023/08/12 10:54:26;;;;;;;6.68;1.63;;;24.60;99.90;;;;;;5052205;28;20029;-52
2023/08/12 10:57:01;;;;;;;8.98;2.00;;;23.00;99.90;;;;;;5035064;28;20273;-51
2023/08/12 10:59:45;;;;;;;13.40;1.52;;;24.10;99.90;;;;;;5037781;28;20087;-48
2023/08/12 11:02:28;;;;;;;10.60;1.80;;;25.90;99.90;;;;;;5037670;28;20026;-48
2023/08/12 11:05:02;;;;;;;5.70;1.17;;;24.30;99.90;;;;;;5037953;28;20083;-54
2023/08/12 11:07:32;;;;;;;12.25;2.25;;;23.70;99.90;;;;;;5046637;28;20021;-49
2023/08/12 11:10:14;;;;;;;9.73;2.15;;;22.40;99.90;;;;;;5042645;28;20025;-50
2023/08/12 11:12:45;;;;;;;13.23;1.92;;;23.50;99.90;;;;;;5034597;28;20120;-48
2023/08/12 11:15:12;;;;;;;9.20;1.70;;;22.50;99.90;;;;;;5047078;28;20497;-51
2023/08/12 11:17:40;;;;;;;10.68;1.45;;;22.50;99.90;;;;;;5034311;28;20046;-53
2023/08/12 11:20:10;;;;;;;8.80;1.80;;;23.20;99.90;;;;;;5034480;28;20018;-53
2023/08/12 11:22:43;;;;;;;9.45;2.03;;;22.80;99.90;;;;;;5035480;28;20041;-52
2023/08/12 11:25:11;;;;;;;8.30;1.50;;;23.60;99.90;;;;;;5036225;28;20588;-48
2023/08/12 11:27:41;;;;;;;15.77;1.73;;;24.80;99.90;;;;;;5033833;28;20029;-46
2023/08/12 11:30:08;;;;;;;8.60;2.20;;;26.20;99.90;;;;;;5033415;28;20013;-48
2023/08/12 11:32:34;;;;;;;6.85;1.95;;;23.30;99.90;;;;;;5036209;28;20022;-50
2023/08/12 11:35:00;;;;;;;9.70;2.40;;;;;;;;;;5045272;28;20036;-53
2023/08/12 11:37:26;;;;;;;8.38;1.30;;;23.40;99.90;;;;;;5053145;28;20062;-49
2023/08/12 11:39:52;;;;;;;6.97;1.63;;;22.90;99.90;;;;;;5053482;28;20037;-48
2023/08/12 11:42:18;;;;;;;9.52;2.17;;;;;;;;;;5053472;28;20029;-47
2023/08/12 11:44:44;;;;;;;13.50;1.83;;;22.40;99.90;;;;;;5053512;28;20021;-49
2023/08/12 11:47:09;;;;;;;8.10;2.15;;;18.60;99.90;;;;;;5053143;28;20557;-54
2023/08/12 11:49:35;;;;;;;9.80;1.73;;;18.10;99.90;;;;;;5053182;28;20036;-48
2023/08/12 11:52:01;;;;;;;16.40;2.33;;;;;;;;;;5053217;28;20056;-48
2023/08/12 11:54:27;;;;;;;11.75;1.92;;;20.60;99.90;;;;;;5053369;28;20121;-49
2023/08/12 11:56:53;;;;;;;8.65;1.73;;;22.40;99.90;;;;;;5053229;28;20108;-48
2023/08/12 11:59:21;;;;;;;3.75;1.00;;;20.00;99.90;;;;;;5052834;28;20116;-50
2023/08/12 12:01:49;;;;;;;7.70;1.75;;;21.40;99.90;;;;;;5044022;28;20083;-48
2023/08/12 12:04:16;;;;;;;8.30;1.40;;;20.30;99.90;;;;;;5041284;28;20017;-47
2023/08/12 12:06:42;;;;;;;3.20;0.98;;;21.60;99.90;;;;;;5038297;28;20030;-52
2023/08/12 12:09:09;;;;;;;2.50;0.77;;;20.70;99.90;;;;;;5042717;28;20036;-49
2023/08/12 12:11:38;;;;;;;3.40;1.27;;;20.70;99.90;;;;;;5034719;28;20056;-52
2023/08/12 12:14:05;;;;;;;2.85;0.60;;;20.90;99.90;;;;;;5038363;28;20034;-46
2023/08/12 12:16:42;;;;;;;4.70;0.90;;;20.30;99.90;;;;;;5035293;28;20032;-50
2023/08/12 12:19:19;;;;;;;2.95;0.70;;;21.10;99.90;;;;;;5040758;28;20033;-49
2023/08/12 12:21:50;;;;;;;2.53;0.65;;;22.20;99.90;;;;;;5040845;28;20678;-51
2023/08/12 12:24:17;;;;;;;6.28;1.02;;;21.30;99.90;;;;;;5038067;28;20025;-47
2023/08/12 12:26:43;;;;;;;6.43;1.08;;;;;;;;;;5034832;28;20075;-51
2023/08/12 12:29:11;;;;;;;3.58;1.30;;;19.80;99.90;;;;;;5034693;28;20485;-49
2023/08/12 12:31:38;;;;;;;5.10;1.38;;;20.20;99.90;;;;;;5034553;28;20036;-51
2023/08/12 12:34:04;;;;;;;7.60;1.60;;;19.30;99.90;;;;;;5036674;28;20047;-48
2023/08/12 12:36:30;;;;;;;5.45;1.17;;;20.60;99.90;;;;;;5052344;28;20485;-52
2023/08/12 12:38:56;;;;;;;4.93;1.52;;;21.30;99.90;;;;;;5052432;28;20033;-48
2023/08/12 12:41:22;;;;;;;16.30;1.27;;;20.00;99.90;;;;;;5052358;28;20024;-50
2023/08/12 12:43:48;;;;;;;11.15;1.70;;;;;;;;;;5052211;28;20043;-53
2023/08/12 12:46:14;;;;;;;12.90;2.30;;;20.90;99.90;;;;;;5052063;28;20143;-54
2023/08/12 12:48:40;;;;;;;8.38;1.77;;;16.50;99.90;;;;;;5048064;28;20087;-53
2023/08/12 12:51:06;;;;;;;10.43;2.08;;;;;;;;;;5035812;28;20049;-49
2023/08/12 12:53:32;;;;;;;11.60;2.58;;;20.50;99.90;;;;;;5033395;28;20067;-50
2023/08/12 12:56:03;;;;;;;13.20;2.38;;;20.90;99.90;;;;;;5032672;28;20028;-49
2023/08/12 12:58:33;;;;;;;8.27;1.90;;;21.70;99.90;;;;;;5031817;28;20493;-53